createdAt,value
2017-09-30T00:00:56.884Z,17.21
2017-09-30T00:03:23.649Z,17.33
2017-09-30T00:05:50.247Z,17.29
2017-09-30T00:08:17.411Z,17.52
2017-09-30T00:10:43.799Z,17.24
2017-09-30T00:13:10.823Z,17.29
2017-09-30T00:15:37.170Z,17.16
2017-09-30T00:18:04.135Z,17.07
2017-09-30T00:20:31.406Z,17.16
2017-09-30T00:22:59.132Z,16.97
2017-09-30T00:25:25.891Z,17.07
2017-09-30T00:27:52.413Z,17.01
2017-09-30T00:30:18.847Z,16.79
2017-09-30T00:32:45.884Z,16.84
2017-09-30T00:35:12.749Z,16.81
2017-09-30T00:37:39.434Z,16.95
2017-09-30T00:40:06.369Z,16.91
2017-09-30T00:42:33.046Z,16.97
2017-09-30T00:44:59.887Z,16.99
2017-09-30T00:47:26.297Z,16.93
2017-09-30T00:49:53.256Z,17.18
2017-09-30T00:52:19.988Z,17.10
2017-09-30T00:54:46.621Z,17.01
2017-09-30T00:57:13.120Z,16.79
2017-09-30T00:59:40.557Z,16.63
2017-09-30T01:02:07.749Z,16.72
2017-09-30T01:04:34.563Z,16.72
2017-09-30T01:07:02.629Z,16.74
2017-09-30T01:09:29.621Z,16.44
2017-09-30T01:11:56.773Z,16.29
2017-09-30T01:14:23.026Z,16.28
2017-09-30T01:16:49.275Z,16.17
2017-09-30T01:19:15.561Z,16.20
2017-09-30T01:21:41.814Z,16.15
2017-09-30T01:24:08.406Z,16.08
2017-09-30T01:26:34.706Z,16.08
2017-09-30T01:29:01.710Z,16.02
2017-09-30T01:31:27.974Z,16.01
2017-09-30T01:33:54.244Z,15.94
2017-09-30T01:36:20.498Z,15.94
2017-09-30T01:38:46.766Z,15.88
2017-09-30T01:41:13.053Z,15.90
2017-09-30T01:43:39.310Z,15.92
2017-09-30T01:46:05.613Z,15.86
2017-09-30T01:48:31.926Z,15.84
2017-09-30T01:50:58.450Z,15.84
2017-09-30T01:53:24.734Z,15.80
2017-09-30T01:55:51.039Z,15.82
2017-09-30T01:58:17.297Z,15.78
2017-09-30T02:00:43.615Z,15.75
2017-09-30T02:03:09.890Z,15.72
2017-09-30T02:05:36.153Z,15.70
2017-09-30T02:08:02.418Z,15.71
2017-09-30T02:10:28.738Z,15.71
2017-09-30T02:12:54.982Z,15.66
2017-09-30T02:15:22.015Z,15.66
2017-09-30T02:17:48.301Z,15.63
2017-09-30T02:20:14.566Z,15.49
2017-09-30T02:22:40.811Z,15.50
2017-09-30T02:25:07.257Z,15.62
2017-09-30T02:27:34.238Z,15.77
2017-09-30T02:30:00.482Z,15.78
2017-09-30T02:32:26.737Z,15.83
2017-09-30T02:34:52.973Z,15.84
2017-09-30T02:37:19.210Z,15.88
2017-09-30T02:39:46.225Z,15.91
2017-09-30T02:42:12.457Z,15.94
2017-09-30T02:44:38.690Z,15.85
2017-09-30T02:47:04.945Z,15.88
2017-09-30T02:49:31.925Z,15.80
2017-09-30T02:51:58.158Z,15.71
2017-09-30T02:54:24.446Z,15.81
2017-09-30T02:56:51.448Z,15.79
2017-09-30T02:59:17.684Z,15.84
2017-09-30T03:01:43.934Z,15.70
2017-09-30T03:04:10.169Z,15.47
2017-09-30T03:06:36.453Z,15.48
2017-09-30T03:09:03.074Z,15.54
2017-09-30T03:11:29.313Z,15.69
2017-09-30T03:13:55.555Z,15.65
2017-09-30T03:16:22.002Z,15.75
2017-09-30T03:18:48.247Z,15.62
2017-09-30T03:21:14.477Z,15.60
2017-09-30T03:23:40.721Z,15.63
2017-09-30T03:26:07.701Z,15.79
2017-09-30T03:28:33.938Z,15.76
2017-09-30T03:31:00.512Z,15.75
2017-09-30T03:33:26.750Z,15.76
2017-09-30T03:35:53.732Z,15.71
2017-09-30T03:38:19.997Z,15.75
2017-09-30T03:40:46.225Z,15.74
2017-09-30T03:43:12.454Z,15.71
2017-09-30T03:45:38.802Z,15.75
2017-09-30T03:48:05.033Z,15.70
2017-09-30T03:50:31.266Z,15.78
2017-09-30T03:52:57.525Z,15.74
2017-09-30T03:55:23.754Z,15.67
2017-09-30T03:57:49.986Z,15.64
2017-09-30T04:00:16.494Z,15.64
2017-09-30T04:02:43.485Z,15.43
2017-09-30T04:05:09.717Z,15.41
2017-09-30T04:07:36.097Z,15.38
2017-09-30T04:10:03.098Z,15.30
2017-09-30T04:12:29.345Z,15.26
2017-09-30T04:14:55.579Z,15.28
2017-09-30T04:17:21.815Z,15.42
2017-09-30T04:19:48.564Z,15.56
2017-09-30T04:22:15.541Z,15.35
2017-09-30T04:24:41.782Z,15.28
2017-09-30T04:27:08.045Z,15.28
2017-09-30T04:29:34.278Z,15.35
2017-09-30T04:32:00.526Z,15.24
2017-09-30T04:34:27.546Z,15.32
2017-09-30T04:36:53.803Z,15.43
2017-09-30T04:39:20.783Z,15.46
2017-09-30T04:41:47.057Z,15.23
2017-09-30T04:44:13.298Z,15.20
2017-09-30T04:46:40.293Z,15.12
2017-09-30T04:49:06.762Z,15.22
2017-09-30T04:51:33.048Z,15.38
2017-09-30T04:53:59.277Z,15.38
2017-09-30T04:56:25.533Z,15.23
2017-09-30T04:58:51.761Z,15.29
2017-09-30T05:01:17.994Z,15.15
2017-09-30T05:03:44.264Z,15.15
2017-09-30T05:06:11.230Z,15.05
2017-09-30T05:08:37.465Z,15.06
2017-09-30T05:11:03.925Z,15.14
2017-09-30T05:13:30.171Z,15.12
2017-09-30T05:15:56.420Z,15.04
2017-09-30T05:18:23.425Z,14.76
2017-09-30T05:20:49.652Z,14.93
2017-09-30T05:23:15.897Z,14.89
2017-09-30T05:25:42.422Z,14.94
2017-09-30T05:28:08.661Z,14.95
2017-09-30T05:30:34.898Z,15.01
2017-09-30T05:33:01.918Z,14.92
2017-09-30T05:35:28.149Z,14.88
2017-09-30T05:37:54.386Z,14.77
2017-09-30T05:40:20.781Z,14.83
2017-09-30T05:42:47.012Z,14.75
2017-09-30T05:45:13.277Z,14.73
2017-09-30T05:47:39.781Z,14.78
2017-09-30T05:50:06.017Z,15.33
2017-09-30T05:52:32.262Z,15.44
2017-09-30T05:54:59.264Z,15.78
2017-09-30T05:57:25.497Z,15.76
2017-09-30T05:59:51.739Z,15.61
2017-09-30T06:02:18.298Z,15.57
2017-09-30T06:04:44.539Z,15.46
2017-09-30T06:07:10.766Z,15.44
2017-09-30T06:09:37.174Z,15.37
2017-09-30T06:12:03.403Z,15.25
2017-09-30T06:14:29.630Z,15.44
2017-09-30T06:16:56.176Z,15.44
2017-09-30T06:19:22.434Z,15.54
2017-09-30T06:21:48.697Z,15.43
2017-09-30T06:24:14.965Z,15.46
2017-09-30T06:26:41.938Z,15.40
2017-09-30T06:29:08.914Z,15.33
2017-09-30T06:31:35.158Z,15.26
2017-09-30T06:34:01.421Z,15.12
2017-09-30T06:36:27.901Z,15.23
2017-09-30T06:38:54.152Z,15.26
2017-09-30T06:41:20.391Z,15.32
2017-09-30T06:43:46.933Z,15.20
2017-09-30T06:46:13.197Z,15.21
2017-09-30T06:48:41.026Z,15.36
2017-09-30T06:51:08.143Z,15.37
2017-09-30T06:53:34.405Z,14.90
2017-09-30T06:56:00.742Z,15.19
2017-09-30T06:58:27.074Z,15.14
2017-09-30T07:00:53.337Z,15.26
2017-09-30T07:03:20.485Z,15.31
2017-09-30T07:05:47.996Z,15.31
2017-09-30T07:08:14.513Z,15.29
2017-09-30T07:10:40.991Z,15.24
2017-09-30T07:13:07.438Z,15.21
2017-09-30T07:15:34.624Z,15.12
2017-09-30T07:18:01.201Z,15.15
2017-09-30T07:20:28.092Z,15.15
2017-09-30T07:22:54.612Z,15.23
2017-09-30T07:25:31.482Z,15.18
2017-09-30T07:27:58.785Z,15.14
2017-09-30T07:30:25.258Z,15.23
2017-09-30T07:32:52.311Z,15.20
2017-09-30T07:35:18.889Z,15.13
2017-09-30T07:37:45.411Z,15.13
2017-09-30T07:40:12.284Z,15.07
2017-09-30T07:42:39.360Z,15.02
2017-09-30T07:45:07.004Z,14.96
2017-09-30T07:47:34.127Z,15.00
2017-09-30T07:50:00.495Z,15.01
2017-09-30T07:52:27.580Z,15.16
2017-09-30T07:54:54.848Z,15.14
2017-09-30T07:57:21.315Z,15.14
2017-09-30T07:59:48.777Z,15.17
2017-09-30T08:02:15.128Z,15.16
2017-09-30T08:04:41.557Z,15.31
2017-09-30T08:07:07.915Z,15.45
2017-09-30T08:09:35.660Z,15.29
2017-09-30T08:12:01.982Z,15.34
2017-09-30T08:14:28.886Z,15.43
2017-09-30T08:16:55.339Z,15.45
2017-09-30T08:19:22.312Z,15.55
2017-09-30T08:21:49.757Z,15.65
2017-09-30T08:24:16.245Z,15.59
2017-09-30T08:26:42.583Z,15.73
2017-09-30T08:29:08.923Z,15.70
2017-09-30T08:31:35.767Z,15.82
2017-09-30T08:34:02.651Z,16.03
2017-09-30T08:36:28.989Z,16.07
2017-09-30T08:38:56.433Z,16.25
2017-09-30T08:41:24.409Z,16.28
2017-09-30T08:43:57.664Z,16.19
2017-09-30T08:46:24.218Z,16.15
2017-09-30T08:48:51.877Z,16.38
2017-09-30T08:51:19.096Z,16.32
2017-09-30T08:53:46.492Z,16.15
2017-09-30T08:56:13.945Z,16.15
2017-09-30T08:58:41.522Z,16.18
2017-09-30T09:01:09.161Z,16.21
2017-09-30T09:03:36.696Z,16.35
2017-09-30T09:06:05.163Z,16.35
2017-09-30T09:08:36.146Z,16.34
2017-09-30T09:11:08.675Z,16.47
2017-09-30T09:13:39.598Z,16.43
2017-09-30T09:16:07.013Z,16.37
2017-09-30T09:18:34.429Z,16.45
2017-09-30T09:21:03.103Z,16.65
2017-09-30T09:23:30.386Z,16.61
2017-09-30T09:26:00.241Z,16.51
2017-09-30T09:28:32.732Z,16.71
2017-09-30T09:31:00.357Z,16.56
2017-09-30T09:33:29.053Z,16.73
2017-09-30T09:35:56.820Z,16.77
2017-09-30T09:38:24.145Z,16.63
2017-09-30T09:40:52.358Z,16.61
2017-09-30T09:43:22.150Z,16.63
2017-09-30T09:45:50.609Z,16.68
2017-09-30T09:48:22.031Z,16.93
2017-09-30T09:50:49.490Z,16.98
2017-09-30T09:53:20.680Z,16.84
2017-09-30T09:55:52.530Z,16.97
2017-09-30T09:58:21.113Z,17.10
2017-09-30T10:00:51.570Z,17.10
2017-09-30T10:03:18.854Z,17.23
2017-09-30T10:05:46.626Z,17.24
2017-09-30T10:08:16.878Z,17.19
2017-09-30T10:10:44.106Z,17.19
2017-09-30T10:13:15.429Z,17.25
2017-09-30T10:15:44.293Z,17.29
2017-09-30T10:18:20.247Z,17.37
2017-09-30T10:20:47.896Z,17.37
2017-09-30T10:23:15.382Z,17.41
2017-09-30T10:25:42.644Z,17.67
2017-09-30T10:28:10.275Z,17.63
2017-09-30T10:30:37.727Z,17.70
2017-09-30T10:33:04.960Z,17.57
2017-09-30T10:35:32.820Z,17.26
2017-09-30T10:38:00.108Z,17.27
2017-09-30T10:40:27.422Z,17.34
2017-09-30T10:42:55.754Z,17.45
2017-09-30T10:45:23.272Z,17.46
2017-09-30T10:47:51.298Z,17.33
2017-09-30T10:50:20.102Z,17.30
2017-09-30T10:52:47.453Z,17.35
2017-09-30T10:55:15.456Z,17.29
2017-09-30T10:57:42.642Z,17.44
2017-09-30T11:00:09.111Z,17.41
2017-09-30T11:02:36.027Z,17.48
2017-09-30T11:05:03.314Z,17.50
2017-09-30T11:07:30.039Z,17.51
2017-09-30T11:09:56.269Z,17.45
2017-09-30T11:12:22.755Z,17.73
2017-09-30T11:14:50.151Z,17.63
2017-09-30T11:17:16.986Z,17.58
2017-09-30T11:19:43.748Z,17.45
2017-09-30T11:22:10.361Z,17.35
2017-09-30T11:24:36.966Z,17.25
2017-09-30T11:27:03.383Z,17.56
2017-09-30T11:29:29.746Z,17.47
2017-09-30T11:31:57.033Z,17.22
2017-09-30T11:34:24.306Z,17.04
2017-09-30T11:36:50.785Z,17.04
2017-09-30T11:39:17.385Z,17.21
2017-09-30T11:41:44.553Z,17.55
2017-09-30T11:44:10.993Z,17.44
2017-09-30T11:46:37.710Z,17.67
2017-09-30T11:49:04.061Z,17.86
2017-09-30T11:51:31.907Z,18.28
2017-09-30T11:53:59.080Z,18.28
2017-09-30T11:56:26.395Z,18.06
2017-09-30T11:58:53.141Z,18.40
2017-09-30T12:01:19.464Z,18.10
2017-09-30T12:03:46.312Z,17.84
2017-09-30T12:06:13.788Z,17.83
2017-09-30T12:08:40.817Z,18.30
2017-09-30T12:11:07.251Z,18.20
2017-09-30T12:13:35.722Z,18.69
2017-09-30T12:16:02.217Z,18.30
2017-09-30T12:18:29.644Z,18.53
2017-09-30T12:20:56.350Z,18.49
2017-09-30T12:23:23.240Z,18.37
2017-09-30T12:25:51.120Z,18.60
2017-09-30T12:28:18.285Z,18.43
2017-09-30T12:30:44.788Z,18.35
2017-09-30T12:33:11.696Z,18.14
2017-09-30T12:35:38.083Z,18.08
2017-09-30T12:38:05.639Z,17.92
2017-09-30T12:40:32.895Z,18.00
2017-09-30T12:42:59.551Z,17.96
2017-09-30T12:45:25.826Z,18.10
2017-09-30T12:47:52.091Z,18.23
2017-09-30T12:50:19.157Z,18.32
2017-09-30T12:52:45.407Z,18.34
2017-09-30T12:55:12.213Z,18.31
2017-09-30T12:57:38.815Z,18.49
2017-09-30T13:00:05.139Z,18.38
2017-09-30T13:02:31.624Z,18.37
2017-09-30T13:04:58.530Z,18.27
2017-09-30T13:07:24.786Z,18.09
2017-09-30T13:09:51.577Z,18.21
2017-09-30T13:12:18.077Z,18.07
2017-09-30T13:14:44.458Z,18.11
2017-09-30T13:17:11.778Z,18.19
2017-09-30T13:19:38.418Z,18.08
2017-09-30T13:22:05.421Z,18.10
2017-09-30T13:24:31.956Z,18.34
2017-09-30T13:26:58.571Z,18.23
2017-09-30T13:29:26.207Z,18.44
2017-09-30T13:31:53.300Z,18.26
2017-09-30T13:34:20.400Z,18.26
2017-09-30T13:36:46.649Z,18.48
2017-09-30T13:39:13.236Z,18.24
2017-09-30T13:41:39.590Z,18.28
2017-09-30T13:44:05.855Z,18.27
2017-09-30T13:46:33.165Z,18.26
2017-09-30T13:49:00.237Z,18.11
2017-09-30T13:51:26.465Z,18.02
2017-09-30T13:53:52.836Z,18.18
2017-09-30T13:56:20.053Z,18.10
2017-09-30T13:58:47.253Z,18.18
2017-09-30T14:01:14.334Z,18.65
2017-09-30T14:03:40.622Z,18.37
2017-09-30T14:06:07.194Z,18.46
2017-09-30T14:08:33.752Z,18.35
2017-09-30T14:11:00.847Z,18.34
2017-09-30T14:13:27.414Z,18.44
2017-09-30T14:15:53.958Z,18.25
2017-09-30T14:18:20.969Z,18.12
2017-09-30T14:20:47.619Z,18.29
2017-09-30T14:23:14.002Z,18.46
2017-09-30T14:25:41.125Z,18.32
2017-09-30T14:28:07.435Z,18.56
2017-09-30T14:30:33.730Z,18.66
2017-09-30T14:33:00.198Z,18.48
2017-09-30T14:35:26.594Z,18.64
2017-09-30T14:37:53.663Z,18.68
2017-09-30T14:40:19.987Z,18.41
2017-09-30T14:42:46.408Z,18.59
2017-09-30T14:45:13.124Z,18.60
2017-09-30T14:47:39.425Z,18.66
2017-09-30T14:50:05.863Z,18.48
2017-09-30T14:52:32.456Z,18.54
2017-09-30T14:54:58.927Z,18.71
2017-09-30T14:57:25.293Z,18.38
2017-09-30T14:59:52.571Z,18.59
2017-09-30T15:02:20.214Z,18.74
2017-09-30T15:04:47.257Z,18.55
2017-09-30T15:07:14.054Z,18.66
2017-09-30T15:09:40.598Z,18.47
2017-09-30T15:12:07.638Z,18.42
2017-09-30T15:14:35.503Z,18.47
2017-09-30T15:17:02.608Z,18.40
2017-09-30T15:19:29.229Z,18.36
2017-09-30T15:21:56.874Z,18.54
2017-09-30T15:24:24.564Z,18.50
2017-09-30T15:26:51.610Z,18.52
2017-09-30T15:29:19.238Z,18.49
2017-09-30T15:31:46.429Z,18.39
2017-09-30T15:34:13.578Z,18.42
2017-09-30T15:36:40.492Z,18.33
2017-09-30T15:39:08.925Z,18.47
2017-09-30T15:41:36.808Z,18.29
2017-09-30T15:44:04.273Z,18.51
2017-09-30T15:46:32.312Z,18.51
2017-09-30T15:48:59.582Z,18.65
2017-09-30T15:51:27.599Z,18.67
2017-09-30T15:53:54.875Z,18.51
2017-09-30T15:56:22.012Z,18.35
2017-09-30T15:58:49.907Z,18.33
2017-09-30T16:01:19.757Z,18.40
2017-09-30T16:03:47.303Z,18.52
2017-09-30T16:06:15.311Z,18.58
2017-09-30T16:08:42.623Z,18.57
2017-09-30T16:11:10.970Z,18.46
2017-09-30T16:13:40.031Z,18.54
2017-09-30T16:16:07.482Z,18.43
2017-09-30T16:18:35.016Z,18.34
2017-09-30T16:21:02.526Z,18.54
2017-09-30T16:23:29.921Z,18.42
2017-09-30T16:25:57.834Z,18.39
2017-09-30T16:28:25.064Z,18.45
2017-09-30T16:30:53.265Z,18.36
2017-09-30T16:33:21.011Z,18.54
2017-09-30T16:35:48.102Z,18.34
2017-09-30T16:38:15.305Z,18.24
2017-09-30T16:40:42.749Z,18.32
2017-09-30T16:43:09.970Z,18.19
2017-09-30T16:45:37.223Z,17.98
2017-09-30T16:48:03.954Z,18.22
2017-09-30T16:50:32.118Z,18.31
2017-09-30T16:52:59.336Z,18.20
2017-09-30T16:55:26.608Z,18.32
2017-09-30T16:57:53.854Z,18.29
2017-09-30T17:00:21.792Z,18.23
2017-09-30T17:02:50.086Z,18.27
2017-09-30T17:05:18.578Z,18.18
2017-09-30T17:07:45.924Z,18.20
2017-09-30T17:10:13.601Z,18.05
2017-09-30T17:12:40.856Z,17.84
2017-09-30T17:15:08.806Z,18.06
2017-09-30T17:17:36.179Z,18.05
2017-09-30T17:20:04.348Z,18.13
2017-09-30T17:22:31.899Z,18.12
2017-09-30T17:24:59.870Z,18.08
2017-09-30T17:27:27.296Z,18.23
2017-09-30T17:29:54.533Z,18.17
2017-09-30T17:32:21.753Z,18.18
2017-09-30T17:34:48.916Z,18.02
2017-09-30T17:37:16.109Z,17.97
2017-09-30T17:39:43.742Z,17.99
2017-09-30T17:42:10.779Z,18.17
2017-09-30T17:44:38.394Z,18.11
2017-09-30T17:47:05.662Z,18.13
2017-09-30T17:49:32.302Z,18.18
2017-09-30T17:52:01.545Z,18.02
2017-09-30T17:54:28.823Z,18.08
2017-09-30T17:56:57.754Z,18.13
2017-09-30T17:59:25.126Z,18.08
2017-09-30T18:01:53.159Z,18.15
2017-09-30T18:04:19.478Z,18.09
2017-09-30T18:06:46.465Z,18.21
2017-09-30T18:09:12.722Z,18.14
2017-09-30T18:11:39.249Z,18.05
2017-09-30T18:14:05.500Z,18.37
2017-09-30T18:16:31.739Z,18.36
2017-09-30T18:18:58.014Z,18.23
2017-09-30T18:21:24.240Z,18.17
2017-09-30T18:23:50.470Z,18.18
2017-09-30T18:26:16.719Z,17.89
2017-09-30T18:28:42.937Z,17.81
2017-09-30T18:31:09.170Z,17.82
2017-09-30T18:33:35.432Z,17.85
2017-09-30T18:36:01.664Z,17.86
2017-09-30T18:38:27.902Z,17.72
2017-09-30T18:40:54.908Z,17.67
2017-09-30T18:43:21.143Z,17.74
2017-09-30T18:45:47.370Z,17.75
2017-09-30T18:48:13.633Z,17.81
2017-09-30T18:50:40.610Z,17.73
2017-09-30T18:53:06.846Z,17.73
2017-09-30T18:55:33.291Z,17.75
2017-09-30T18:57:59.521Z,17.78
2017-09-30T19:00:25.745Z,17.76
2017-09-30T19:02:52.218Z,17.75
2017-09-30T19:05:18.457Z,17.63
2017-09-30T19:07:45.421Z,17.47
2017-09-30T19:10:11.901Z,17.33
2017-09-30T19:12:38.133Z,17.21
2017-09-30T19:15:04.384Z,17.10
2017-09-30T19:17:30.614Z,16.91
2017-09-30T19:19:57.587Z,16.81
2017-09-30T19:22:23.852Z,16.84
2017-09-30T19:24:50.079Z,16.79
2017-09-30T19:27:16.375Z,16.72
2017-09-30T19:29:42.623Z,16.72
2017-09-30T19:32:08.845Z,16.74
2017-09-30T19:34:35.082Z,16.84
2017-09-30T19:37:01.856Z,16.76
2017-09-30T19:39:28.087Z,16.61
2017-09-30T19:41:54.313Z,16.56
2017-09-30T19:44:20.942Z,16.53
2017-09-30T19:46:47.181Z,16.55
2017-09-30T19:49:13.420Z,16.57
2017-09-30T19:51:39.706Z,16.45
2017-09-30T19:54:05.967Z,16.44
2017-09-30T19:56:32.199Z,16.42
2017-09-30T19:58:58.554Z,16.39
2017-09-30T20:01:25.529Z,16.46
2017-09-30T20:03:51.761Z,16.35
2017-09-30T20:06:18.028Z,16.37
2017-09-30T20:08:44.262Z,16.31
2017-09-30T20:11:10.481Z,16.36
2017-09-30T20:13:36.738Z,16.39
2017-09-30T20:16:03.708Z,16.28
2017-09-30T20:18:29.946Z,16.29
2017-09-30T20:20:56.302Z,16.10
2017-09-30T20:23:23.273Z,15.93
2017-09-30T20:25:49.501Z,15.88
2017-09-30T20:28:15.846Z,15.80
2017-09-30T20:30:42.818Z,15.60
2017-09-30T20:33:09.054Z,15.32
2017-09-30T20:35:35.342Z,15.26
2017-09-30T20:38:02.345Z,15.08
2017-09-30T20:40:28.582Z,14.99
2017-09-30T20:42:54.839Z,15.01
2017-09-30T20:45:21.809Z,14.90
2017-09-30T20:47:48.784Z,14.80
2017-09-30T20:50:15.433Z,14.75
2017-09-30T20:52:41.677Z,14.71
2017-09-30T20:55:07.923Z,14.68
2017-09-30T20:57:34.155Z,14.66
2017-09-30T21:00:01.129Z,14.65
2017-09-30T21:02:27.486Z,14.58
2017-09-30T21:04:53.724Z,14.51
2017-09-30T21:07:19.941Z,14.37
2017-09-30T21:09:46.187Z,14.39
2017-09-30T21:12:12.422Z,14.33
2017-09-30T21:14:38.669Z,14.25
2017-09-30T21:17:05.074Z,14.26
2017-09-30T21:19:31.318Z,14.22
2017-09-30T21:21:57.578Z,14.20
2017-09-30T21:24:24.568Z,14.15
2017-09-30T21:26:50.810Z,14.14
2017-09-30T21:29:17.063Z,14.10
2017-09-30T21:31:44.077Z,14.10
2017-09-30T21:34:10.310Z,14.07
2017-09-30T21:36:36.546Z,14.06
2017-09-30T21:39:02.857Z,13.97
2017-09-30T21:41:29.838Z,13.99
2017-09-30T21:43:57.162Z,13.99
2017-09-30T21:46:23.394Z,13.98
2017-09-30T21:48:49.620Z,13.97
2017-09-30T21:51:16.130Z,13.91
2017-09-30T21:53:42.377Z,13.92
2017-09-30T21:56:08.613Z,13.91
2017-09-30T21:58:35.682Z,13.91
2017-09-30T22:01:01.917Z,13.87
2017-09-30T22:03:28.905Z,13.87
2017-09-30T22:05:55.477Z,13.91
2017-09-30T22:08:21.727Z,13.95
2017-09-30T22:10:48.716Z,13.85
2017-09-30T22:13:14.995Z,13.80
2017-09-30T22:15:41.257Z,13.83
2017-09-30T22:18:07.525Z,13.82
2017-09-30T22:20:33.954Z,13.86
2017-09-30T22:23:00.210Z,13.92
2017-09-30T22:25:26.478Z,13.87
2017-09-30T22:27:52.725Z,13.85
2017-09-30T22:30:18.953Z,13.89
2017-09-30T22:32:45.226Z,13.90
2017-09-30T22:35:11.482Z,13.86
2017-09-30T22:37:38.453Z,13.90
2017-09-30T22:40:04.681Z,13.90
2017-09-30T22:42:30.995Z,13.88
2017-09-30T22:44:57.213Z,13.86
2017-09-30T22:47:24.182Z,13.86
2017-09-30T22:49:50.744Z,13.84
2017-09-30T22:52:16.973Z,13.82
2017-09-30T22:54:43.200Z,13.83
2017-09-30T22:57:09.732Z,13.86
2017-09-30T22:59:35.991Z,13.86
2017-09-30T23:02:02.234Z,13.85
2017-09-30T23:04:29.257Z,13.82
2017-09-30T23:06:55.501Z,13.86
2017-09-30T23:09:22.477Z,13.84
2017-09-30T23:11:48.745Z,13.82
2017-09-30T23:14:14.993Z,13.84
2017-09-30T23:16:41.242Z,13.84
2017-09-30T23:19:08.245Z,13.80
2017-09-30T23:21:34.482Z,13.76
2017-09-30T23:24:00.727Z,13.76
2017-09-30T23:26:32.978Z,13.71
2017-09-30T23:28:59.225Z,13.72
2017-09-30T23:31:25.458Z,13.71
